GCGM/GMZ METAR and TAF weather

Enter ICAO airport designator
Station Type Date Time Source
GCGM METAR 2022/11/30 16:30 UTC NOAA

GCGM 301630Z VRB03KT 9999 BKN035 21/12 Q1017 RMK R09/VRB02KT ARP/VRB01KT


Station Type Date Time Source
GCGM Decoded METAR 2022/11/30 16:30 UTC NOAA

Station name not available
Nov 30, 2022 - 11:30 AM EST / 2022.11.30 1630 UTC
Wind: Variable at 3 MPH (3 KT):0
Visibility: greater than 7 mile(s):0
Sky conditions: mostly cloudy
Temperature: 69 F (21 C)
Dew Point: 53 F (12 C)
Relative Humidity: 56%
Pressure (altimeter): 30.03 in. Hg (1017 hPa)
ob: GCGM 301630Z VRB03KT 9999 BKN035 21/12 Q1017 RMK R09/VRB02KT ARP/VRB01KT
cycle: 16

Station Type Date Time Source
GCGM TAF 2022/11/30 15:00 UTC NOAA

TAF GCGM 301400Z 3015/0115 22007KT 9999 SCT020 TX22/0114Z TN17/0106Z PROB30
TEMPO 3018/0104 36010KT

Example: see airport list